createdAt,value
2017-01-02T00:00:12.878Z,1008.41
2017-01-02T00:00:53.372Z,1008.4
2017-01-02T00:01:33.840Z,1008.42
2017-01-02T00:02:14.307Z,1008.37
2017-01-02T00:02:54.754Z,1008.39
2017-01-02T00:03:35.326Z,1008.35
2017-01-02T00:04:15.789Z,1008.37
2017-01-02T00:04:56.309Z,1008.41
2017-01-02T00:05:36.790Z,1008.4
2017-01-02T00:06:17.283Z,1008.39
2017-01-02T00:06:57.740Z,1008.42
2017-01-02T00:07:38.210Z,1008.41
2017-01-02T00:08:18.847Z,1008.46
2017-01-02T00:08:59.380Z,1008.39
2017-01-02T00:09:39.856Z,1008.42
2017-01-02T00:10:20.317Z,1008.37
2017-01-02T00:11:00.776Z,1008.34
2017-01-02T00:11:41.284Z,1008.38
2017-01-02T00:12:21.777Z,1008.33
2017-01-02T00:13:02.253Z,1008.41
2017-01-02T00:13:42.700Z,1008.34
2017-01-02T00:14:23.145Z,1008.36
2017-01-02T00:15:03.653Z,1008.39
2017-01-02T00:15:44.162Z,1008.39
2017-01-02T00:16:24.653Z,1008.4
2017-01-02T00:17:05.205Z,1008.37
2017-01-02T00:17:45.686Z,1008.32
2017-01-02T00:18:26.108Z,1008.33
2017-01-02T00:19:06.635Z,1008.38
2017-01-02T00:19:47.031Z,1008.35
2017-01-02T00:20:27.575Z,1008.37
2017-01-02T00:21:07.994Z,1008.31
2017-01-02T00:21:48.473Z,1008.33
2017-01-02T00:22:28.936Z,1008.36
2017-01-02T00:23:09.455Z,1008.41
2017-01-02T00:23:49.916Z,1008.36
2017-01-02T00:24:30.417Z,1008.38
2017-01-02T00:25:10.915Z,1008.35
2017-01-02T00:25:51.455Z,1008.37
2017-01-02T00:26:31.888Z,1008.39
2017-01-02T00:27:12.387Z,1008.37
2017-01-02T00:27:52.889Z,1008.39
2017-01-02T00:28:33.352Z,1008.44
2017-01-02T00:29:13.810Z,1008.41
2017-01-02T00:29:54.322Z,1008.4
2017-01-02T00:30:34.780Z,1008.42
2017-01-02T00:31:15.289Z,1008.45
2017-01-02T00:31:55.735Z,1008.41
2017-01-02T00:32:36.238Z,1008.44
2017-01-02T00:33:16.746Z,1008.44
2017-01-02T00:33:57.196Z,1008.46
2017-01-02T00:34:37.678Z,1008.45
2017-01-02T00:35:18.157Z,1008.47
2017-01-02T00:35:58.676Z,1008.42
2017-01-02T00:36:39.176Z,1008.38
2017-01-02T00:37:19.633Z,1008.38
2017-01-02T00:38:00.122Z,1008.35
2017-01-02T00:38:40.596Z,1008.4
2017-01-02T00:39:21.097Z,1008.32
2017-01-02T00:40:01.576Z,1008.31
2017-01-02T00:40:42.036Z,1008.34
2017-01-02T00:41:22.514Z,1008.35
2017-01-02T00:42:03.028Z,1008.36
2017-01-02T00:42:43.516Z,1008.34
2017-01-02T00:43:24.000Z,1008.41
2017-01-02T00:44:04.651Z,1008.31
2017-01-02T00:44:44.993Z,1008.34
2017-01-02T00:45:25.452Z,1008.33
2017-01-02T00:46:05.964Z,1008.34
2017-01-02T00:46:46.515Z,1008.33
2017-01-02T00:47:27.009Z,1008.36
2017-01-02T00:48:07.440Z,1008.42
2017-01-02T00:48:47.930Z,1008.33
2017-01-02T00:49:28.433Z,1008.36
2017-01-02T00:50:08.896Z,1008.33
2017-01-02T00:50:49.408Z,1008.3
2017-01-02T00:51:29.844Z,1008.33
2017-01-02T00:52:10.350Z,1008.24
2017-01-02T00:52:50.842Z,1008.27
2017-01-02T00:53:31.363Z,1008.25
2017-01-02T00:54:11.791Z,1008.23
2017-01-02T00:54:52.303Z,1008.22
2017-01-02T00:55:32.744Z,1008.22
2017-01-02T00:56:13.230Z,1008.23
2017-01-02T00:56:53.741Z,1008.25
2017-01-02T00:57:34.237Z,1008.22
2017-01-02T00:58:14.720Z,1008.26
2017-01-02T00:58:55.237Z,1008.23
2017-01-02T00:59:35.741Z,1008.21
2017-01-02T01:00:16.270Z,1008.18
2017-01-02T01:00:56.769Z,1008.2
2017-01-02T01:01:37.167Z,1008.25
2017-01-02T01:02:17.699Z,1008.21
2017-01-02T01:02:58.134Z,1008.27
2017-01-02T01:03:38.632Z,1008.22
2017-01-02T01:04:20.786Z,1008.25
2017-01-02T01:05:01.234Z,1008.25
2017-01-02T01:05:41.716Z,1008.2
2017-01-02T01:06:22.231Z,1008.25
2017-01-02T01:07:02.656Z,1008.25
2017-01-02T01:07:43.219Z,1008.26
2017-01-02T01:08:23.638Z,1008.24
2017-01-02T01:09:04.158Z,1008.28
2017-01-02T01:09:44.656Z,1008.29
2017-01-02T01:10:25.066Z,1008.33
2017-01-02T01:11:05.587Z,1008.36
2017-01-02T01:11:46.057Z,1008.31
2017-01-02T01:12:26.547Z,1008.29
2017-01-02T01:13:07.013Z,1008.35
2017-01-02T01:13:47.489Z,1008.4
2017-01-02T01:14:27.987Z,1008.38
2017-01-02T01:15:08.484Z,1008.38
2017-01-02T01:15:48.986Z,1008.41
2017-01-02T01:16:29.470Z,1008.43
2017-01-02T01:17:09.929Z,1008.45
2017-01-02T01:17:50.427Z,1008.45
2017-01-02T01:18:30.865Z,1008.45
2017-01-02T01:19:11.358Z,1008.45
2017-01-02T01:19:51.881Z,1008.45
2017-01-02T01:20:32.438Z,1008.39
2017-01-02T01:21:12.878Z,1008.43
2017-01-02T01:21:53.333Z,1008.46
2017-01-02T01:22:33.813Z,1008.43
2017-01-02T01:23:14.287Z,1008.44
2017-01-02T01:23:54.752Z,1008.45
2017-01-02T01:24:35.257Z,1008.5
2017-01-02T01:25:15.745Z,1008.5
2017-01-02T01:25:56.224Z,1008.59
2017-01-02T01:26:36.701Z,1008.52
2017-01-02T01:27:17.200Z,1008.55
2017-01-02T01:27:57.734Z,1008.57
2017-01-02T01:28:38.141Z,1008.61
2017-01-02T01:29:18.659Z,1008.61
2017-01-02T01:29:59.117Z,1008.57
2017-01-02T01:30:39.608Z,1008.57
2017-01-02T01:31:20.095Z,1008.6
2017-01-02T01:32:00.534Z,1008.61
2017-01-02T01:32:41.080Z,1008.58
2017-01-02T01:33:21.525Z,1008.55
2017-01-02T01:34:02.027Z,1008.54
2017-01-02T01:34:42.461Z,1008.53
2017-01-02T01:35:23.035Z,1008.56
2017-01-02T01:36:03.501Z,1008.55
2017-01-02T01:36:43.988Z,1008.57
2017-01-02T01:37:24.449Z,1008.49
2017-01-02T01:38:04.928Z,1008.52
2017-01-02T01:38:45.384Z,1008.5
2017-01-02T01:39:25.867Z,1008.52
2017-01-02T01:40:06.365Z,1008.55
2017-01-02T01:40:46.893Z,1008.55
2017-01-02T01:41:27.347Z,1008.56
2017-01-02T01:42:07.803Z,1008.54
2017-01-02T01:42:48.397Z,1008.49
2017-01-02T01:43:28.838Z,1008.55
2017-01-02T01:44:09.305Z,1008.46
2017-01-02T01:44:49.801Z,1008.49
2017-01-02T01:45:30.321Z,1008.46
2017-01-02T01:46:10.787Z,1008.46
2017-01-02T01:46:51.262Z,1008.45
2017-01-02T01:47:31.752Z,1008.51
2017-01-02T01:48:12.250Z,1008.51
2017-01-02T01:48:52.785Z,1008.51
2017-01-02T01:49:33.232Z,1008.54
2017-01-02T01:50:13.754Z,1008.47
2017-01-02T01:50:54.242Z,1008.54
2017-01-02T01:51:34.694Z,1008.55
2017-01-02T01:52:15.185Z,1008.57
2017-01-02T01:52:55.671Z,1008.53
2017-01-02T01:53:36.137Z,1008.61
2017-01-02T01:54:16.637Z,1008.59
2017-01-02T01:54:57.134Z,1008.6
2017-01-02T01:55:37.621Z,1008.6
2017-01-02T01:56:18.109Z,1008.56
2017-01-02T01:56:58.643Z,1008.54
2017-01-02T01:57:39.113Z,1008.58
2017-01-02T01:58:19.689Z,1008.52
2017-01-02T01:59:00.169Z,1008.55
2017-01-02T01:59:40.651Z,1008.55
2017-01-02T02:00:21.186Z,1008.48
2017-01-02T02:01:01.603Z,1008.48
2017-01-02T02:01:42.087Z,1008.49
2017-01-02T02:02:22.584Z,1008.43
2017-01-02T02:03:03.077Z,1008.5
2017-01-02T02:03:43.566Z,1008.48
2017-01-02T02:04:24.157Z,1008.44
2017-01-02T02:05:04.572Z,1008.47
2017-01-02T02:05:45.110Z,1008.5
2017-01-02T02:06:25.578Z,1008.48
2017-01-02T02:07:06.021Z,1008.44
2017-01-02T02:07:46.535Z,1008.4
2017-01-02T02:08:26.979Z,1008.42
2017-01-02T02:09:07.431Z,1008.37
2017-01-02T02:09:47.944Z,1008.38
2017-01-02T02:10:28.422Z,1008.34
2017-01-02T02:11:08.923Z,1008.34
2017-01-02T02:11:49.402Z,1008.34
2017-01-02T02:12:29.873Z,1008.31
2017-01-02T02:13:10.390Z,1008.29
2017-01-02T02:13:50.844Z,1008.26
2017-01-02T02:14:31.312Z,1008.31
2017-01-02T02:15:11.764Z,1008.26
2017-01-02T02:15:52.322Z,1008.27
2017-01-02T02:16:32.835Z,1008.24
2017-01-02T02:17:13.260Z,1008.22
2017-01-02T02:17:53.720Z,1008.22
2017-01-02T02:18:34.183Z,1008.24
2017-01-02T02:19:14.704Z,1008.26
2017-01-02T02:19:55.203Z,1008.23
2017-01-02T02:20:35.649Z,1008.28
2017-01-02T02:21:16.160Z,1008.28
2017-01-02T02:21:56.681Z,1008.33
2017-01-02T02:22:37.186Z,1008.33
2017-01-02T02:23:17.650Z,1008.28
2017-01-02T02:23:58.118Z,1008.33
2017-01-02T02:24:38.625Z,1008.33
2017-01-02T02:25:19.071Z,1008.26
2017-01-02T02:25:59.527Z,1008.34
2017-01-02T02:26:40.013Z,1008.29
2017-01-02T02:27:20.482Z,1008.31
2017-01-02T02:28:00.960Z,1008.32
2017-01-02T02:28:41.472Z,1008.27
2017-01-02T02:29:21.989Z,1008.31
2017-01-02T02:30:02.442Z,1008.3
2017-01-02T02:30:42.925Z,1008.33
2017-01-02T02:31:23.386Z,1008.3
2017-01-02T02:32:03.884Z,1008.3
2017-01-02T02:34:16.590Z,1008.36
2017-01-02T02:34:57.076Z,1008.32
2017-01-02T02:35:37.602Z,1008.36
2017-01-02T02:36:18.041Z,1008.32
2017-01-02T02:36:58.500Z,1008.36
2017-01-02T02:37:39.030Z,1008.35
2017-01-02T02:38:19.479Z,1008.36
2017-01-02T02:38:59.966Z,1008.36
2017-01-02T02:39:40.469Z,1008.34
2017-01-02T02:40:20.916Z,1008.35
2017-01-02T02:41:01.417Z,1008.32
2017-01-02T02:41:41.918Z,1008.32
2017-01-02T02:42:22.381Z,1008.36
2017-01-02T02:44:35.045Z,1008.36
2017-01-02T02:45:15.548Z,1008.33
2017-01-02T02:45:56.063Z,1008.4
2017-01-02T02:46:36.579Z,1008.34
2017-01-02T02:47:17.012Z,1008.35
2017-01-02T02:47:57.555Z,1008.32
2017-01-02T02:48:38.051Z,1008.3
2017-01-02T02:49:18.487Z,1008.3
2017-01-02T02:49:58.937Z,1008.28
2017-01-02T02:50:39.451Z,1008.26
2017-01-02T02:51:19.909Z,1008.28
2017-01-02T02:52:00.399Z,1008.22
2017-01-02T02:56:00.633Z,1008.14
2017-01-02T02:56:41.124Z,1008.18
2017-01-02T02:57:21.676Z,1008.19
2017-01-02T02:58:02.139Z,1008.15
2017-01-02T02:58:42.610Z,1008.14
2017-01-02T02:59:23.121Z,1008.14
2017-01-02T03:00:03.633Z,1008.12
2017-01-02T03:00:44.136Z,1008.07
2017-01-02T03:01:24.610Z,1008.07
2017-01-02T03:02:05.107Z,1008.03
2017-01-02T03:02:45.556Z,1008.05
2017-01-02T03:03:26.035Z,1008.05
2017-01-02T03:04:06.486Z,1008.09
2017-01-02T03:04:46.962Z,1008.07
2017-01-02T03:05:27.403Z,1008.04
2017-01-02T03:06:07.897Z,1008.01
2017-01-02T03:06:48.407Z,1008.03
2017-01-02T03:07:28.861Z,1008.03
2017-01-02T03:08:09.348Z,1008.1
2017-01-02T03:08:49.842Z,1008.07
2017-01-02T03:09:30.350Z,1008.06
2017-01-02T03:10:10.773Z,1008.07
2017-01-02T03:10:51.257Z,1008.13
2017-01-02T03:11:31.732Z,1008.09
2017-01-02T03:12:12.249Z,1008.1
2017-01-02T03:12:52.689Z,1008.16
2017-01-02T03:13:33.153Z,1008.12
2017-01-02T03:14:13.653Z,1008.12
2017-01-02T03:14:54.130Z,1008.14
2017-01-02T03:15:34.644Z,1008.13
2017-01-02T03:16:15.109Z,1008.12
2017-01-02T03:16:55.600Z,1008.1
2017-01-02T03:17:36.072Z,1008.11
2017-01-02T03:18:16.614Z,1008.07
2017-01-02T03:18:57.061Z,1008.09
2017-01-02T03:19:37.549Z,1008.07
2017-01-02T03:20:18.025Z,1008.1
2017-01-02T03:20:58.466Z,1008.13
2017-01-02T03:21:38.981Z,1008.1
2017-01-02T03:22:19.452Z,1008.05
2017-01-02T03:22:59.916Z,1008.08
2017-01-02T03:23:40.459Z,1008.07
2017-01-02T03:24:20.896Z,1008.09
2017-01-02T03:25:01.396Z,1008.08
2017-01-02T03:25:41.851Z,1008.09
2017-01-02T03:26:22.343Z,1008.08
2017-01-02T03:27:02.843Z,1008.09
2017-01-02T03:27:43.337Z,1008.08
2017-01-02T03:28:23.791Z,1008.04
2017-01-02T03:29:04.294Z,1008.02
2017-01-02T03:29:44.781Z,1008.04
2017-01-02T03:30:25.237Z,1008.02
2017-01-02T03:31:05.738Z,1008.01
2017-01-02T03:31:46.252Z,1008
2017-01-02T03:32:26.784Z,1007.94
2017-01-02T03:33:07.235Z,1007.97
2017-01-02T03:33:47.737Z,1007.94
2017-01-02T03:34:28.242Z,1007.96
2017-01-02T03:36:40.972Z,1007.94
2017-01-02T03:37:21.476Z,1007.93
2017-01-02T03:38:01.951Z,1007.97
2017-01-02T03:38:42.460Z,1007.91
2017-01-02T03:39:22.936Z,1007.91
2017-01-02T03:40:03.422Z,1007.93
2017-01-02T03:40:43.873Z,1007.92
2017-01-02T03:41:24.418Z,1007.89
2017-01-02T03:42:04.908Z,1007.9
2017-01-02T03:42:45.421Z,1007.87
2017-01-02T03:43:25.893Z,1007.87
2017-01-02T03:44:06.352Z,1007.88
2017-01-02T03:44:46.878Z,1007.87
2017-01-02T03:45:27.315Z,1007.8
2017-01-02T03:46:07.851Z,1007.84
2017-01-02T03:46:48.270Z,1007.83
2017-01-02T03:47:28.771Z,1007.79
2017-01-02T03:48:09.276Z,1007.81
2017-01-02T03:48:49.872Z,1007.87
2017-01-02T03:49:30.260Z,1007.78
2017-01-02T03:50:10.755Z,1007.84
2017-01-02T03:50:51.256Z,1007.83
2017-01-02T03:51:31.679Z,1007.83
2017-01-02T03:52:12.165Z,1007.79
2017-01-02T03:52:52.718Z,1007.75
2017-01-02T03:53:33.165Z,1007.75
2017-01-02T03:54:13.638Z,1007.73
2017-01-02T03:54:54.156Z,1007.7
2017-01-02T03:55:34.612Z,1007.76
2017-01-02T03:56:15.084Z,1007.77
2017-01-02T03:56:55.549Z,1007.79
2017-01-02T03:57:36.089Z,1007.79
2017-01-02T03:58:16.618Z,1007.79
2017-01-02T03:58:57.009Z,1007.84
2017-01-02T03:59:37.532Z,1007.85
2017-01-02T04:00:18.032Z,1007.89
2017-01-02T04:00:58.439Z,1007.87
2017-01-02T04:01:39.029Z,1007.86
2017-01-02T04:02:19.460Z,1007.88
2017-01-02T04:02:59.931Z,1007.88
2017-01-02T04:03:40.441Z,1007.93
2017-01-02T04:04:20.952Z,1007.92
2017-01-02T04:05:01.387Z,1007.93
2017-01-02T04:05:41.902Z,1007.92
2017-01-02T04:06:22.378Z,1007.95
2017-01-02T04:07:02.822Z,1007.97
2017-01-02T04:07:43.342Z,1007.93
2017-01-02T04:08:23.850Z,1007.85
2017-01-02T04:09:04.249Z,1007.9
2017-01-02T04:09:44.701Z,1007.86
2017-01-02T04:10:25.260Z,1007.82
2017-01-02T04:11:05.890Z,1007.87
2017-01-02T04:11:46.378Z,1007.85
2017-01-02T04:12:26.878Z,1007.89
2017-01-02T04:13:07.393Z,1007.81
2017-01-02T04:13:47.870Z,1007.83
2017-01-02T04:14:28.344Z,1007.82
2017-01-02T04:15:08.864Z,1007.87
2017-01-02T04:15:49.303Z,1007.87
2017-01-02T04:16:29.815Z,1007.87
2017-01-02T04:17:10.282Z,1007.92
2017-01-02T04:17:50.856Z,1007.9
2017-01-02T04:18:31.312Z,1007.92
2017-01-02T04:19:11.832Z,1007.88
2017-01-02T04:19:52.330Z,1007.96
2017-01-02T04:20:32.868Z,1007.95
2017-01-02T04:21:13.288Z,1007.93
2017-01-02T04:21:53.799Z,1007.93
2017-01-02T04:22:34.277Z,1007.95
2017-01-02T04:23:14.742Z,1007.95
2017-01-02T04:23:55.226Z,1007.99
2017-01-02T04:24:35.729Z,1007.99
2017-01-02T04:25:16.325Z,1007.97
2017-01-02T04:25:56.805Z,1007.98
2017-01-02T04:26:37.307Z,1008.01
2017-01-02T04:27:17.773Z,1007.99
2017-01-02T04:27:58.244Z,1007.98
2017-01-02T04:28:38.767Z,1008.03
2017-01-02T04:29:19.217Z,1008
2017-01-02T04:29:59.771Z,1007.96
2017-01-02T04:30:40.212Z,1007.97
2017-01-02T04:31:20.687Z,1008.02
2017-01-02T04:32:01.133Z,1008.07
2017-01-02T04:32:41.588Z,1008.05
2017-01-02T04:33:22.100Z,1008.05
2017-01-02T04:34:02.626Z,1007.99
2017-01-02T04:34:43.107Z,1008.02
2017-01-02T04:35:23.578Z,1008.01
2017-01-02T04:36:04.046Z,1008.03
2017-01-02T04:36:44.783Z,1008.02
2017-01-02T04:37:25.134Z,1007.97
2017-01-02T04:38:05.684Z,1008.02
2017-01-02T04:38:46.200Z,1008.01
2017-01-02T04:39:26.653Z,1007.99
2017-01-02T04:40:07.135Z,1008.01
2017-01-02T04:40:47.629Z,1008
2017-01-02T04:41:28.152Z,1007.93
2017-01-02T04:42:08.695Z,1007.97
2017-01-02T04:42:49.139Z,1007.95
2017-01-02T04:43:29.635Z,1007.94
2017-01-02T04:44:10.096Z,1007.94
2017-01-02T04:44:50.609Z,1007.95
2017-01-02T04:45:31.117Z,1007.93
2017-01-02T04:46:11.536Z,1007.96
2017-01-02T04:46:51.997Z,1007.92
2017-01-02T04:47:32.502Z,1007.92
2017-01-02T04:48:12.992Z,1007.91
2017-01-02T04:48:53.432Z,1007.89
2017-01-02T04:49:33.967Z,1007.93
2017-01-02T04:50:14.429Z,1007.93
2017-01-02T04:50:54.921Z,1008
2017-01-02T04:51:35.446Z,1008.02
2017-01-02T04:52:15.876Z,1007.98
2017-01-02T04:52:56.422Z,1007.99
2017-01-02T04:53:36.810Z,1007.97
2017-01-02T04:54:17.289Z,1008.04
2017-01-02T04:54:57.833Z,1007.98
2017-01-02T04:55:38.326Z,1007.97
2017-01-02T04:56:18.775Z,1008.01
2017-01-02T04:56:59.331Z,1007.99
2017-01-02T04:57:39.764Z,1007.98
2017-01-02T04:58:20.233Z,1007.95
2017-01-02T04:59:00.720Z,1007.91
2017-01-02T04:59:41.220Z,1007.94
2017-01-02T05:00:21.702Z,1007.96
2017-01-02T05:01:02.217Z,1007.94
2017-01-02T05:01:42.673Z,1007.92
2017-01-02T05:02:23.153Z,1007.93
2017-01-02T05:03:03.655Z,1007.89
2017-01-02T05:03:44.142Z,1007.95
2017-01-02T05:04:24.652Z,1007.91
2017-01-02T05:05:05.149Z,1007.92
2017-01-02T05:05:45.604Z,1007.93
2017-01-02T05:06:26.105Z,1007.91
2017-01-02T05:07:06.561Z,1007.92
2017-01-02T05:07:47.053Z,1007.93
2017-01-02T05:08:27.564Z,1007.94
2017-01-02T05:10:40.233Z,1007.95
2017-01-02T05:11:20.748Z,1007.9
2017-01-02T05:12:01.218Z,1007.88
2017-01-02T05:12:41.744Z,1007.86
2017-01-02T05:13:22.203Z,1007.9
2017-01-02T05:14:02.732Z,1007.85
2017-01-02T05:14:43.175Z,1007.86
2017-01-02T05:15:23.660Z,1007.86
2017-01-02T05:16:04.156Z,1007.8
2017-01-02T05:16:44.616Z,1007.8
2017-01-02T05:17:25.124Z,1007.82
2017-01-02T05:18:05.557Z,1007.78
2017-01-02T05:18:46.123Z,1007.81
2017-01-02T05:19:26.632Z,1007.79
2017-01-02T05:20:07.102Z,1007.87
2017-01-02T05:20:47.519Z,1007.77
2017-01-02T05:21:28.061Z,1007.78
2017-01-02T05:22:08.526Z,1007.75
2017-01-02T05:22:49.042Z,1007.77
2017-01-02T05:23:29.547Z,1007.79
2017-01-02T05:24:10.050Z,1007.77
2017-01-02T05:24:50.524Z,1007.74
2017-01-02T05:25:30.984Z,1007.73
2017-01-02T05:26:11.485Z,1007.66
2017-01-02T05:26:51.959Z,1007.74
2017-01-02T05:27:32.430Z,1007.67
2017-01-02T05:28:12.902Z,1007.73
2017-01-02T05:28:53.434Z,1007.68
2017-01-02T05:29:33.901Z,1007.69
2017-01-02T05:30:14.423Z,1007.71
2017-01-02T05:30:54.933Z,1007.7
2017-01-02T05:31:35.365Z,1007.65
2017-01-02T05:32:15.868Z,1007.72
2017-01-02T05:32:56.365Z,1007.72
2017-01-02T05:33:36.868Z,1007.69
2017-01-02T05:34:17.316Z,1007.68
2017-01-02T05:34:57.835Z,1007.7
2017-01-02T05:35:38.303Z,1007.69
2017-01-02T05:36:18.797Z,1007.72
2017-01-02T05:36:59.244Z,1007.73
2017-01-02T05:37:39.751Z,1007.67
2017-01-02T05:38:20.258Z,1007.71
2017-01-02T05:39:00.738Z,1007.69
2017-01-02T05:39:41.215Z,1007.68
2017-01-02T05:40:21.669Z,1007.74
2017-01-02T05:41:02.159Z,1007.74
2017-01-02T05:41:42.627Z,1007.76
2017-01-02T05:42:23.154Z,1007.8
2017-01-02T05:43:03.626Z,1007.82
2017-01-02T05:43:44.112Z,1007.77
2017-01-02T05:44:24.630Z,1007.86
2017-01-02T05:45:05.092Z,1007.83
2017-01-02T05:45:45.602Z,1007.81
2017-01-02T05:46:26.092Z,1007.79
2017-01-02T05:47:06.559Z,1007.8
2017-01-02T05:47:47.041Z,1007.75
2017-01-02T05:48:27.527Z,1007.74
2017-01-02T05:49:08.174Z,1007.73
2017-01-02T05:49:48.600Z,1007.8
2017-01-02T05:50:29.178Z,1007.74
2017-01-02T05:51:09.601Z,1007.78
2017-01-02T05:51:50.114Z,1007.77
2017-01-02T05:52:30.575Z,1007.74
2017-01-02T05:53:11.068Z,1007.71
2017-01-02T05:53:51.524Z,1007.73
2017-01-02T05:54:32.002Z,1007.73
2017-01-02T05:55:12.511Z,1007.75
2017-01-02T05:55:52.963Z,1007.76
2017-01-02T05:56:33.543Z,1007.77
2017-01-02T05:57:14.001Z,1007.78
2017-01-02T05:57:54.493Z,1007.77
2017-01-02T05:58:34.925Z,1007.79
2017-01-02T05:59:15.448Z,1007.77
2017-01-02T05:59:55.948Z,1007.76
2017-01-02T06:00:36.412Z,1007.81
2017-01-02T06:01:16.944Z,1007.8
2017-01-02T06:01:57.445Z,1007.77
2017-01-02T06:02:37.944Z,1007.75
2017-01-02T06:03:18.416Z,1007.83
2017-01-02T06:03:58.909Z,1007.78
2017-01-02T06:04:39.402Z,1007.85
2017-01-02T06:05:19.883Z,1007.79
2017-01-02T06:06:00.355Z,1007.78
2017-01-02T06:06:40.834Z,1007.77
2017-01-02T06:07:21.376Z,1007.74
2017-01-02T06:08:01.800Z,1007.78
2017-01-02T06:08:42.293Z,1007.75
2017-01-02T06:09:22.805Z,1007.78
2017-01-02T06:10:03.245Z,1007.75
2017-01-02T06:10:43.764Z,1007.73
2017-01-02T06:11:24.240Z,1007.67
2017-01-02T06:12:04.678Z,1007.7
2017-01-02T06:12:45.197Z,1007.68
2017-01-02T06:13:25.743Z,1007.77
2017-01-02T06:14:06.206Z,1007.72
2017-01-02T06:14:46.696Z,1007.82
2017-01-02T06:15:27.186Z,1007.74
2017-01-02T06:16:07.643Z,1007.76
2017-01-02T06:16:48.137Z,1007.8
2017-01-02T06:17:28.641Z,1007.85
2017-01-02T06:18:09.154Z,1007.87
2017-01-02T06:18:49.589Z,1007.85
2017-01-02T06:19:30.072Z,1007.86
2017-01-02T06:20:10.583Z,1007.9
2017-01-02T06:20:51.025Z,1007.9
2017-01-02T06:21:31.570Z,1007.92
2017-01-02T06:22:12.074Z,1007.98
2017-01-02T06:22:52.543Z,1007.96
2017-01-02T06:23:33.020Z,1007.95
2017-01-02T06:24:13.822Z,1007.96
2017-01-02T06:24:54.289Z,1007.96
2017-01-02T06:25:34.827Z,1007.97
2017-01-02T06:26:15.266Z,1007.96
2017-01-02T06:26:55.766Z,1007.97
2017-01-02T06:27:36.215Z,1007.98
2017-01-02T06:28:16.755Z,1008.06
2017-01-02T06:28:57.267Z,1008.03
2017-01-02T06:29:37.725Z,1008.04
2017-01-02T06:30:18.208Z,1008.07
2017-01-02T06:30:58.700Z,1008.06
2017-01-02T06:31:39.226Z,1008.1
2017-01-02T06:32:19.651Z,1008.12
2017-01-02T06:33:00.114Z,1008.11
2017-01-02T06:33:40.621Z,1008.15
2017-01-02T06:34:21.091Z,1008.13
2017-01-02T06:35:01.592Z,1008.13
2017-01-02T06:35:42.058Z,1008.15
2017-01-02T06:36:22.600Z,1008.14
2017-01-02T06:37:03.093Z,1008.16
2017-01-02T06:37:43.568Z,1008.13
2017-01-02T06:38:24.062Z,1008.1
2017-01-02T06:39:04.573Z,1008.12
2017-01-02T06:39:45.052Z,1008.1
2017-01-02T06:40:25.590Z,1008.15
2017-01-02T06:41:06.074Z,1008.15
2017-01-02T06:41:46.527Z,1008.13
2017-01-02T06:42:27.036Z,1008.17
2017-01-02T06:43:07.484Z,1008.18
2017-01-02T06:43:47.952Z,1008.19
2017-01-02T06:44:28.464Z,1008.15
2017-01-02T06:45:08.962Z,1008.23
2017-01-02T06:45:49.506Z,1008.21
2017-01-02T06:46:29.962Z,1008.23
2017-01-02T06:47:10.429Z,1008.16
2017-01-02T06:47:50.958Z,1008.2
2017-01-02T06:48:31.445Z,1008.18
2017-01-02T06:49:11.922Z,1008.22
2017-01-02T06:49:52.388Z,1008.26
2017-01-02T06:50:32.862Z,1008.29
2017-01-02T06:51:13.422Z,1008.29
2017-01-02T06:51:53.931Z,1008.31
2017-01-02T06:52:34.396Z,1008.32
2017-01-02T06:53:14.839Z,1008.32
2017-01-02T06:53:55.355Z,1008.34
2017-01-02T06:54:35.845Z,1008.32
2017-01-02T06:55:16.277Z,1008.3
2017-01-02T06:55:56.773Z,1008.32
2017-01-02T06:56:37.254Z,1008.35
2017-01-02T06:57:17.792Z,1008.35
2017-01-02T06:57:58.187Z,1008.32
2017-01-02T06:58:38.665Z,1008.33
2017-01-02T06:59:19.123Z,1008.4
2017-01-02T06:59:59.644Z,1008.35
2017-01-02T07:00:40.118Z,1008.35
2017-01-02T07:01:20.636Z,1008.36
2017-01-02T07:02:01.208Z,1008.41
2017-01-02T07:02:41.659Z,1008.39
2017-01-02T07:03:22.143Z,1008.39
2017-01-02T07:04:02.607Z,1008.42
2017-01-02T07:04:43.146Z,1008.36
2017-01-02T07:05:23.619Z,1008.36
2017-01-02T07:06:04.079Z,1008.41
2017-01-02T07:06:44.599Z,1008.42
2017-01-02T07:07:25.043Z,1008.43
2017-01-02T07:08:05.609Z,1008.46
2017-01-02T07:08:46.070Z,1008.43
2017-01-02T07:09:26.576Z,1008.42
2017-01-02T07:10:07.022Z,1008.48
2017-01-02T07:10:47.505Z,1008.43
2017-01-02T07:11:28.038Z,1008.47
2017-01-02T07:12:08.535Z,1008.51
2017-01-02T07:12:48.983Z,1008.53
2017-01-02T07:13:29.494Z,1008.53
2017-01-02T07:14:09.997Z,1008.52
2017-01-02T07:14:50.441Z,1008.48
2017-01-02T07:15:30.944Z,1008.38
2017-01-02T07:16:11.438Z,1008.36
2017-01-02T07:16:51.944Z,1008.28
2017-01-02T07:17:32.438Z,1008.31
2017-01-02T07:18:12.954Z,1008.3
2017-01-02T07:18:53.387Z,1008.34
2017-01-02T07:19:33.877Z,1008.3
2017-01-02T07:20:14.398Z,1008.34
2017-01-02T07:20:54.941Z,1008.39
2017-01-02T07:21:35.448Z,1008.39
2017-01-02T07:22:15.930Z,1008.41
2017-01-02T07:22:56.428Z,1008.4
2017-01-02T07:23:36.883Z,1008.38
2017-01-02T07:24:17.395Z,1008.37
2017-01-02T07:24:57.890Z,1008.38
2017-01-02T07:25:38.346Z,1008.42
2017-01-02T07:26:18.892Z,1008.35
2017-01-02T07:26:59.463Z,1008.43
2017-01-02T07:27:39.987Z,1008.44
2017-01-02T07:28:20.438Z,1008.44
2017-01-02T07:29:00.889Z,1008.44
2017-01-02T07:29:41.413Z,1008.37
2017-01-02T07:30:21.853Z,1008.37
2017-01-02T07:31:02.352Z,1008.38
2017-01-02T07:31:42.880Z,1008.36
2017-01-02T07:32:23.350Z,1008.37
2017-01-02T07:33:03.839Z,1008.4
2017-01-02T07:33:44.310Z,1008.35
2017-01-02T07:34:24.776Z,1008.33
2017-01-02T07:35:05.311Z,1008.33
2017-01-02T07:35:45.818Z,1008.28
2017-01-02T07:36:26.270Z,1008.23
2017-01-02T07:37:06.780Z,1008.29
2017-01-02T07:37:47.263Z,1008.22
2017-01-02T07:38:27.751Z,1008.32
2017-01-02T07:39:08.201Z,1008.31
2017-01-02T07:39:48.718Z,1008.34
2017-01-02T07:40:29.196Z,1008.39
2017-01-02T07:41:09.677Z,1008.46
2017-01-02T07:41:50.171Z,1008.49
2017-01-02T07:42:30.645Z,1008.45
2017-01-02T07:43:11.174Z,1008.44
2017-01-02T07:43:51.598Z,1008.41
2017-01-02T07:44:32.102Z,1008.35
2017-01-02T07:45:12.677Z,1008.42
2017-01-02T07:45:53.110Z,1008.51
2017-01-02T07:46:33.593Z,1008.47
2017-01-02T07:47:14.094Z,1008.44
2017-01-02T07:47:54.617Z,1008.44
2017-01-02T07:48:35.093Z,1008.46
2017-01-02T07:49:15.589Z,1008.43
2017-01-02T07:49:56.065Z,1008.44
2017-01-02T07:50:36.560Z,1008.44
2017-01-02T07:51:17.028Z,1008.5
2017-01-02T07:51:57.555Z,1008.54
2017-01-02T07:52:37.989Z,1008.52
2017-01-02T07:53:18.501Z,1008.55
2017-01-02T07:53:58.991Z,1008.51
2017-01-02T07:54:39.497Z,1008.57
2017-01-02T07:55:19.946Z,1008.59
2017-01-02T07:56:00.466Z,1008.62
2017-01-02T07:56:40.960Z,1008.61
2017-01-02T07:57:21.466Z,1008.6
2017-01-02T07:58:01.940Z,1008.61
2017-01-02T07:58:42.439Z,1008.64
2017-01-02T07:59:22.937Z,1008.63
2017-01-02T08:00:03.408Z,1008.65
2017-01-02T08:00:43.887Z,1008.57
2017-01-02T08:01:24.445Z,1008.63
2017-01-02T08:02:04.918Z,1008.64
2017-01-02T08:02:45.431Z,1008.61
2017-01-02T08:03:25.876Z,1008.66
2017-01-02T08:04:06.349Z,1008.64
2017-01-02T08:04:46.896Z,1008.65
2017-01-02T08:05:27.331Z,1008.66
2017-01-02T08:06:07.823Z,1008.67
2017-01-02T08:06:48.321Z,1008.69
2017-01-02T08:07:28.848Z,1008.76
2017-01-02T08:08:09.331Z,1008.73
2017-01-02T08:08:49.832Z,1008.71
2017-01-02T08:09:30.371Z,1008.69
2017-01-02T08:10:10.823Z,1008.76
2017-01-02T08:10:51.351Z,1008.71
2017-01-02T08:11:31.896Z,1008.69
2017-01-02T08:12:12.362Z,1008.79
2017-01-02T08:12:52.868Z,1008.75
2017-01-02T08:13:33.321Z,1008.82
2017-01-02T08:14:13.943Z,1008.79
2017-01-02T08:14:54.424Z,1008.82
2017-01-02T08:15:34.917Z,1008.8
2017-01-02T08:16:15.400Z,1008.78
2017-01-02T08:16:55.946Z,1008.83
2017-01-02T08:17:36.408Z,1008.82
2017-01-02T08:18:16.865Z,1008.76
2017-01-02T08:18:57.403Z,1008.75
2017-01-02T08:19:37.869Z,1008.79
2017-01-02T08:20:18.392Z,1008.74
2017-01-02T08:20:58.880Z,1008.76